Time;durP1;ratioP1;P1;durP2;ratioP2;P2;SDS_P1;SDS_P2;PMS_P1;PMS_P2;Temp;Humidity;BMP_temperature;BMP_pressure;BME280_temperature;BME280_humidity;BME280_pressure;Samples;Min_cycle;Max_cycle;Signal;HPM_P1;HPM_P2
2022/04/28 00:00:10;;;;;;;6.38;4.40;;;9.90;99.60;;;;;;4901870;29;20075;-71
2022/04/28 00:02:38;;;;;;;6.57;4.38;;;9.90;99.80;;;;;;4896051;29;20109;-71
2022/04/28 00:05:05;;;;;;;8.15;4.38;;;9.80;99.70;;;;;;4887517;29;20032;-71
2022/04/28 00:07:31;;;;;;;7.13;4.72;;;9.90;99.80;;;;;;4897791;29;20028;-72
2022/04/28 00:09:57;;;;;;;8.70;4.28;;;9.80;99.80;;;;;;4889721;29;20119;-71
2022/04/28 00:12:23;;;;;;;7.07;4.87;;;9.80;99.70;;;;;;4896567;29;20044;-71
2022/04/28 00:14:49;;;;;;;6.70;4.20;;;9.80;99.80;;;;;;4893229;29;20032;-72
2022/04/28 00:17:14;;;;;;;6.47;4.30;;;9.80;99.80;;;;;;4897425;29;20279;-70
2022/04/28 00:19:40;;;;;;;6.57;4.17;;;9.80;99.80;;;;;;4895564;29;20111;-71
2022/04/28 00:22:06;;;;;;;6.03;4.03;;;9.80;99.90;;;;;;4896557;29;20482;-71
2022/04/28 00:24:31;;;;;;;9.17;4.70;;;9.80;99.80;;;;;;4901140;29;20036;-71
2022/04/28 00:26:57;;;;;;;6.93;4.23;;;9.70;99.80;;;;;;4891783;29;20028;-71
2022/04/28 00:29:24;;;;;;;6.33;4.20;;;9.70;99.80;;;;;;4894015;29;20024;-71
2022/04/28 00:31:49;;;;;;;6.75;4.63;;;9.70;99.90;;;;;;4891320;29;20420;-71
2022/04/28 00:34:15;;;;;;;8.20;4.50;;;9.70;99.90;;;;;;4891419;29;20040;-71
2022/04/28 00:36:42;;;;;;;6.57;4.33;;;9.70;99.90;;;;;;4909555;29;20029;-72
2022/04/28 00:39:07;;;;;;;;;;;9.70;99.90;;;;;;4893508;29;20518;-71
2022/04/28 00:41:34;;;;;;;6.25;4.35;;;9.70;99.90;;;;;;4908022;29;19915;-71
2022/04/28 00:44:00;;;;;;;6.43;3.95;;;9.70;99.90;;;;;;4891435;29;20920;-71
2022/04/28 00:46:26;;;;;;;6.53;4.40;;;9.60;99.70;;;;;;4894667;29;20020;-71
2022/04/28 00:51:37;;;;;;;6.43;4.10;;;9.60;99.80;;;;;;4890583;29;20390;-71
2022/04/28 00:54:04;;;;;;;7.50;4.40;;;9.50;99.80;;;;;;4883420;29;20092;-71
2022/04/28 00:56:31;;;;;;;8.48;5.03;;;9.50;99.70;;;;;;4891023;29;20028;-71
2022/04/28 00:59:02;;;;;;;7.53;4.18;;;9.50;99.70;;;;;;4895035;29;20024;-71
2022/04/28 01:01:29;;;;;;;6.68;4.60;;;9.50;99.70;;;;;;4895535;29;20016;-71
2022/04/28 01:03:55;;;;;;;6.45;4.32;;;9.50;99.70;;;;;;4884390;29;20168;-71
2022/04/28 01:06:22;;;;;;;8.40;4.93;;;9.50;99.80;;;;;;4893436;29;20106;-71
2022/04/28 01:08:48;;;;;;;7.63;4.05;;;9.50;99.90;;;;;;4889421;29;20028;-72
2022/04/28 01:11:18;;;;;;;7.93;4.40;;;9.40;99.80;;;;;;4888958;29;20024;-71
2022/04/28 01:13:46;;;;;;;11.00;5.07;;;9.40;99.80;;;;;;4891816;29;20595;-71
2022/04/28 01:16:15;;;;;;;8.10;4.65;;;9.40;99.80;;;;;;4897335;29;20047;-71
2022/04/28 01:18:42;;;;;;;5.90;4.68;;;9.40;99.90;;;;;;4888033;29;20024;-72
2022/04/28 01:21:08;;;;;;;;;;;9.40;99.80;;;;;;4887325;29;20108;-71
2022/04/28 01:23:35;;;;;;;7.75;4.60;;;9.40;99.90;;;;;;4899944;29;20045;-71
2022/04/28 01:26:02;;;;;;;9.80;4.90;;;9.40;99.90;;;;;;4885982;29;21009;-71
2022/04/28 01:28:29;;;;;;;8.35;4.55;;;9.40;99.90;;;;;;4900349;29;20032;-71
2022/04/28 01:30:55;;;;;;;;;;;9.40;99.90;;;;;;4887665;29;20024;-71
2022/04/28 01:33:20;;;;;;;7.25;4.53;;;9.40;99.90;;;;;;4887910;29;19911;-71
2022/04/28 01:35:46;;;;;;;7.77;4.80;;;9.40;99.90;;;;;;4888166;29;20028;-71
2022/04/28 01:38:12;;;;;;;6.90;4.63;;;9.40;99.90;;;;;;4887131;29;20634;-72
2022/04/28 01:40:37;;;;;;;7.77;4.33;;;9.30;99.90;;;;;;4887796;29;20465;-71
2022/04/28 01:43:04;;;;;;;6.57;4.57;;;9.30;99.90;;;;;;4897016;29;21488;-71
2022/04/28 01:45:30;;;;;;;6.30;4.80;;;9.30;99.90;;;;;;4885888;29;20032;-71
2022/04/28 01:47:55;;;;;;;6.83;4.70;;;9.30;99.90;;;;;;4911860;29;20130;-71
2022/04/28 01:50:21;;;;;;;7.00;4.20;;;9.40;99.90;;;;;;4887482;29;20039;-71
2022/04/28 01:55:32;;;;;;;6.28;4.63;;;9.30;99.90;;;;;;4888050;29;20032;-71
2022/04/28 01:57:58;;;;;;;8.10;5.15;;;9.20;99.90;;;;;;4896503;29;20017;-71
2022/04/28 02:00:25;;;;;;;7.93;4.38;;;9.20;99.90;;;;;;4884791;29;20028;-72
2022/04/28 02:02:50;;;;;;;6.78;4.88;;;9.20;99.90;;;;;;4890895;29;20037;-71
2022/04/28 02:05:16;;;;;;;8.63;5.07;;;9.20;99.90;;;;;;4896272;29;20066;-72
2022/04/28 02:07:43;;;;;;;6.07;4.30;;;9.10;99.90;;;;;;4897020;29;20110;-71
2022/04/28 02:10:10;;;;;;;10.80;5.00;;;9.10;99.90;;;;;;4908875;29;20024;-71
2022/04/28 02:12:37;;;;;;;8.40;4.60;;;9.20;99.90;;;;;;4891766;29;20035;-71
2022/04/28 02:15:03;;;;;;;7.05;4.88;;;9.10;99.90;;;;;;4908507;29;20028;-71
2022/04/28 02:17:33;;;;;;;;;;;9.10;99.90;;;;;;4888135;29;20064;-71
2022/04/28 02:20:06;;;;;;;6.47;4.47;;;9.10;99.90;;;;;;4893707;29;19923;-71
2022/04/28 02:22:32;;;;;;;7.47;4.60;;;9.00;99.90;;;;;;4883790;29;20112;-71
2022/04/28 02:24:58;;;;;;;9.25;4.90;;;9.00;99.90;;;;;;4894514;29;20023;-71
2022/04/28 02:27:27;;;;;;;9.87;5.10;;;9.10;99.90;;;;;;4888240;29;20037;-72
2022/04/28 02:29:53;;;;;;;7.38;4.80;;;9.00;99.90;;;;;;4891722;29;20017;-71
2022/04/28 02:32:19;;;;;;;6.45;4.50;;;9.00;99.90;;;;;;4889139;29;20036;-71
2022/04/28 02:34:46;;;;;;;7.57;5.00;;;9.00;99.90;;;;;;4893504;29;20117;-71
2022/04/28 02:37:13;;;;;;;6.72;5.03;;;9.00;99.90;;;;;;4897461;29;20035;-72
2022/04/28 02:39:39;;;;;;;7.28;4.97;;;9.00;99.90;;;;;;4894998;29;20072;-71
2022/04/28 02:42:05;;;;;;;9.10;5.30;;;9.00;99.90;;;;;;4890222;29;20406;-71
2022/04/28 02:44:31;;;;;;;8.57;5.27;;;9.00;99.90;;;;;;4885458;29;20024;-71
2022/04/28 02:46:56;;;;;;;7.13;5.03;;;8.90;99.90;;;;;;4890323;29;20389;-71
2022/04/28 02:49:22;;;;;;;6.93;4.67;;;8.90;99.90;;;;;;4891081;29;20036;-71
2022/04/28 02:51:47;;;;;;;5.77;4.30;;;8.90;99.90;;;;;;4891120;29;20028;-71
2022/04/28 02:54:13;;;;;;;7.73;4.10;;;8.90;99.90;;;;;;4889068;29;20091;-71
2022/04/28 02:56:41;;;;;;;6.40;4.80;;;8.80;99.90;;;;;;4893806;29;20036;-71
2022/04/28 02:59:09;;;;;;;8.00;4.68;;;8.80;99.90;;;;;;4885972;29;20024;-71
2022/04/28 03:01:34;;;;;;;6.05;4.22;;;8.80;99.90;;;;;;4888224;29;20024;-71
2022/04/28 03:04:00;;;;;;;7.53;4.60;;;8.80;99.90;;;;;;4911360;29;20040;-71
2022/04/28 03:11:54;;;;;;;7.70;4.80;;;8.70;99.90;;;;;;4896530;29;20046;-71
2022/04/28 03:14:21;;;;;;;9.23;5.37;;;8.70;99.90;;;;;;4894779;29;20028;-71
2022/04/28 03:16:49;;;;;;;6.45;4.80;;;8.70;99.90;;;;;;4894087;29;20024;-71
2022/04/28 03:19:15;;;;;;;7.18;4.60;;;8.70;99.90;;;;;;4890607;29;20025;-71
2022/04/28 03:21:40;;;;;;;7.00;4.83;;;8.70;99.90;;;;;;4901332;29;20054;-71
2022/04/28 03:24:06;;;;;;;7.27;4.80;;;8.70;99.90;;;;;;4902888;29;20074;-71
2022/04/28 03:26:33;;;;;;;7.93;5.03;;;8.70;99.90;;;;;;4907418;29;20461;-71
2022/04/28 03:29:00;;;;;;;;;;;8.70;99.90;;;;;;4897634;29;20027;-71
2022/04/28 03:31:26;;;;;;;9.02;5.57;;;8.70;99.90;;;;;;4886655;29;19966;-71
2022/04/28 03:33:52;;;;;;;8.95;4.78;;;8.70;99.90;;;;;;4894258;29;20055;-71
2022/04/28 03:39:02;;;;;;;7.43;4.90;;;8.70;99.90;;;;;;4893445;29;20160;-71
2022/04/28 03:41:28;;;;;;;8.10;4.37;;;8.70;99.90;;;;;;4892392;29;20028;-71
2022/04/28 03:43:54;;;;;;;7.17;4.70;;;8.70;99.90;;;;;;4899762;29;20035;-71
2022/04/28 03:46:19;;;;;;;7.33;4.73;;;8.70;99.90;;;;;;4899773;29;20043;-72
2022/04/28 03:48:45;;;;;;;8.97;4.70;;;8.80;99.90;;;;;;4897965;29;20044;-71
2022/04/28 03:51:11;;;;;;;7.07;4.70;;;8.70;99.90;;;;;;4899237;29;20100;-71
2022/04/28 03:53:37;;;;;;;9.63;4.72;;;8.80;99.90;;;;;;4893107;29;20115;-71
2022/04/28 03:56:03;;;;;;;13.17;5.60;;;8.80;99.90;;;;;;4895075;29;20161;-71
2022/04/28 03:58:29;;;;;;;8.43;5.75;;;8.80;99.90;;;;;;4894771;29;20033;-71
2022/04/28 04:00:55;;;;;;;10.23;5.70;;;8.90;99.90;;;;;;4912165;29;20043;-71
2022/04/28 04:03:20;;;;;;;6.40;4.93;;;8.90;99.90;;;;;;4894663;29;20394;-72
2022/04/28 04:05:47;;;;;;;7.90;5.33;;;9.00;99.90;;;;;;4896890;29;20405;-71
2022/04/28 04:08:14;;;;;;;7.18;4.97;;;9.00;99.90;;;;;;4899339;29;20101;-71
2022/04/28 04:10:45;;;;;;;9.70;5.10;;;9.00;99.90;;;;;;4897491;29;20035;-71
2022/04/28 04:13:13;;;;;;;9.25;4.80;;;9.00;99.90;;;;;;4893181;29;20603;-71
2022/04/28 04:15:39;;;;;;;8.73;4.55;;;9.10;99.90;;;;;;4885923;29;20779;-71
2022/04/28 04:18:08;;;;;;;7.53;5.00;;;9.20;99.90;;;;;;4892276;29;20522;-71
2022/04/28 04:20:35;;;;;;;6.97;4.80;;;9.20;99.90;;;;;;4890073;29;20257;-71
2022/04/28 04:23:05;;;;;;;7.35;4.80;;;9.30;99.90;;;;;;4896074;29;20691;-71
2022/04/28 04:25:31;;;;;;;7.72;5.13;;;9.40;99.90;;;;;;4886089;29;20032;-72
2022/04/28 04:27:57;;;;;;;9.87;5.70;;;10.20;99.90;;;;;;4893305;29;20027;-72
2022/04/28 04:33:07;;;;;;;6.72;4.65;;;9.60;99.90;;;;;;4890962;29;20748;-71
2022/04/28 04:35:33;;;;;;;5.73;4.20;;;9.70;99.90;;;;;;4887499;29;20056;-71
2022/04/28 04:38:00;;;;;;;7.57;4.90;;;9.80;99.90;;;;;;4898110;29;20100;-71
2022/04/28 04:40:25;;;;;;;;;;;10.00;99.90;;;;;;4890968;29;20079;-72
2022/04/28 04:42:52;;;;;;;8.15;5.10;;;10.10;99.90;;;;;;4894974;29;19914;-72
2022/04/28 04:45:17;;;;;;;6.18;4.72;;;10.50;99.90;;;;;;4888765;29;20721;-71
2022/04/28 04:47:43;;;;;;;8.33;4.53;;;11.50;99.90;;;;;;4894534;29;20115;-71
2022/04/28 04:50:11;;;;;;;5.60;4.43;;;13.00;97.30;;;;;;4897859;29;20036;-72
2022/04/28 04:52:37;;;;;;;7.38;4.68;;;14.60;94.50;;;;;;4889869;29;20225;-72
2022/04/28 04:55:04;;;;;;;7.03;4.82;;;15.90;91.40;;;;;;4908588;29;20478;-72
2022/04/28 04:57:31;;;;;;;7.80;4.57;;;16.50;88.30;;;;;;4890311;29;21054;-72
2022/04/28 04:59:58;;;;;;;6.20;4.70;;;16.10;86.30;;;;;;4897520;29;20439;-72
2022/04/28 05:02:24;;;;;;;;;;;15.40;87.50;;;;;;4889312;29;20068;-72
2022/04/28 05:04:50;;;;;;;5.72;4.53;;;14.70;89.40;;;;;;4896484;29;19907;-71
2022/04/28 05:07:16;;;;;;;6.93;4.60;;;14.10;90.70;;;;;;4907901;29;20039;-71
2022/04/28 05:09:43;;;;;;;7.45;4.78;;;13.60;91.80;;;;;;4888612;29;20477;-72
2022/04/28 05:12:09;;;;;;;5.80;4.38;;;13.20;92.70;;;;;;4895266;29;20107;-72
2022/04/28 05:14:36;;;;;;;9.68;5.53;;;13.00;93.60;;;;;;4894545;29;20103;-72
2022/04/28 05:17:01;;;;;;;;;;;12.90;94.10;;;;;;4901880;29;20466;-73
2022/04/28 05:19:27;;;;;;;7.45;4.65;;;13.00;95.40;;;;;;4890808;29;19958;-73
2022/04/28 05:21:57;;;;;;;6.53;4.40;;;13.10;94.60;;;;;;4896705;29;20024;-72
2022/04/28 05:24:23;;;;;;;7.00;5.13;;;13.10;94.10;;;;;;4894542;29;20738;-73
2022/04/28 05:26:49;;;;;;;7.60;5.10;;;13.20;94.60;;;;;;4892678;29;20051;-72
2022/04/28 05:29:14;;;;;;;7.10;5.23;;;13.20;94.40;;;;;;4891278;29;20024;-73
2022/04/28 05:31:40;;;;;;;7.43;4.87;;;13.30;94.00;;;;;;4891789;29;20072;-72
2022/04/28 05:34:06;;;;;;;8.50;5.03;;;13.60;95.00;;;;;;4888722;29;20268;-72
2022/04/28 05:36:32;;;;;;;6.90;5.37;;;13.90;93.30;;;;;;4895883;29;20032;-73
2022/04/28 05:39:00;;;;;;;7.68;5.03;;;13.90;92.60;;;;;;4892880;29;20052;-72
2022/04/28 05:41:28;;;;;;;8.35;5.40;;;13.80;92.70;;;;;;4891448;29;20088;-73
2022/04/28 05:46:41;;;;;;;8.60;4.60;;;13.80;92.80;;;;;;4891537;29;20039;-73
2022/04/28 05:49:09;;;;;;;7.93;4.78;;;13.90;92.30;;;;;;4897411;29;20054;-73
2022/04/28 05:51:36;;;;;;;7.05;4.78;;;14.00;92.10;;;;;;4888526;29;20032;-73
2022/04/28 05:54:02;;;;;;;6.40;4.70;;;14.30;92.10;;;;;;4891751;29;20028;-73
2022/04/28 05:56:28;;;;;;;5.93;4.20;;;14.80;91.40;;;;;;4894262;29;20078;-73
2022/04/28 05:58:57;;;;;;;7.72;4.80;;;16.30;89.80;;;;;;4892587;29;20752;-73
2022/04/28 06:01:23;;;;;;;7.00;4.63;;;18.40;82.20;;;;;;4887075;29;20043;-73
2022/04/28 06:03:48;;;;;;;6.38;4.20;;;20.40;74.30;;;;;;4890866;29;20024;-73
2022/04/28 06:06:15;;;;;;;5.20;4.47;;;22.10;66.00;;;;;;4895900;29;20028;-73
2022/04/28 06:08:42;;;;;;;5.00;4.10;;;23.50;60.90;;;;;;4892390;29;20032;-74
2022/04/28 06:11:07;;;;;;;4.97;4.00;;;24.70;56.00;;;;;;4894051;29;20103;-73
2022/04/28 06:13:33;;;;;;;5.78;4.50;;;25.60;52.50;;;;;;4902869;29;20515;-74
2022/04/28 06:16:02;;;;;;;7.03;4.53;;;26.60;49.40;;;;;;4897198;29;20016;-73
2022/04/28 06:18:28;;;;;;;5.30;4.53;;;27.20;46.70;;;;;;4889059;29;20112;-74
2022/04/28 06:20:55;;;;;;;5.65;4.30;;;27.60;45.40;;;;;;4891811;29;20068;-74
2022/04/28 06:23:21;;;;;;;4.35;3.95;;;27.80;45.00;;;;;;4896769;29;20095;-73
2022/04/28 06:25:47;;;;;;;4.97;4.30;;;26.80;44.60;;;;;;4893495;29;20099;-74
2022/04/28 06:28:14;;;;;;;4.97;4.47;;;25.90;46.20;;;;;;4896934;29;20064;-73
2022/04/28 06:30:42;;;;;;;5.00;4.47;;;26.10;45.60;;;;;;4888726;29;20028;-74
2022/04/28 06:33:11;;;;;;;5.43;4.82;;;25.90;45.60;;;;;;4908436;29;20055;-73
2022/04/28 06:35:38;;;;;;;5.72;4.55;;;24.80;45.60;;;;;;4892682;29;20434;-75
2022/04/28 06:38:05;;;;;;;5.82;4.72;;;23.10;48.30;;;;;;4896880;29;20137;-75
2022/04/28 06:40:31;;;;;;;7.50;4.95;;;21.40;50.90;;;;;;4891202;29;20122;-76
2022/04/28 06:42:57;;;;;;;5.60;4.88;;;20.10;53.80;;;;;;4896374;29;20104;-75
2022/04/28 06:45:24;;;;;;;6.57;5.25;;;19.30;55.20;;;;;;4897182;29;20070;-73
2022/04/28 06:47:49;;;;;;;6.28;5.00;;;18.60;57.50;;;;;;4902340;29;20378;-73
2022/04/28 06:50:16;;;;;;;7.88;4.70;;;18.00;58.40;;;;;;4899722;29;20029;-73
2022/04/28 06:52:41;;;;;;;6.32;4.80;;;17.80;60.20;;;;;;4893092;29;20054;-74
2022/04/28 06:55:10;;;;;;;5.88;4.47;;;18.00;60.60;;;;;;4912722;29;20446;-73
2022/04/28 06:57:36;;;;;;;8.07;4.47;;;18.30;60.60;;;;;;4892094;29;20029;-74
2022/04/28 07:00:04;;;;;;;5.95;4.95;;;18.80;59.50;;;;;;4892301;29;20684;-73
2022/04/28 07:02:31;;;;;;;5.70;4.75;;;18.80;59.10;;;;;;4895135;29;20044;-73
2022/04/28 07:04:57;;;;;;;5.38;4.88;;;19.50;59.00;;;;;;4897079;29;20027;-74
2022/04/28 07:07:23;;;;;;;5.85;4.32;;;21.00;56.10;;;;;;4890476;29;20040;-75
2022/04/28 07:09:50;;;;;;;5.60;4.53;;;23.00;52.90;;;;;;4887454;29;20102;-74
2022/04/28 07:12:16;;;;;;;6.93;4.40;;;24.40;49.90;;;;;;4898352;29;20028;-74
2022/04/28 07:14:43;;;;;;;;;;;24.50;48.90;;;;;;4895353;29;20657;-74
2022/04/28 07:17:11;;;;;;;6.47;4.70;;;25.40;49.00;;;;;;4896957;29;19938;-74
2022/04/28 07:19:37;;;;;;;5.53;4.50;;;27.00;46.50;;;;;;4896681;29;20012;-74
2022/04/28 07:22:07;;;;;;;6.53;4.40;;;28.00;42.90;;;;;;4913264;29;20450;-74
2022/04/28 07:24:33;;;;;;;5.55;5.05;;;28.60;42.60;;;;;;4910903;29;20036;-74
2022/04/28 07:26:59;;;;;;;5.45;4.15;;;28.70;40.40;;;;;;4907276;29;20035;-73
2022/04/28 07:29:26;;;;;;;5.15;4.28;;;28.20;41.00;;;;;;4902092;29;20051;-74
2022/04/28 07:31:54;;;;;;;5.90;4.60;;;28.70;41.20;;;;;;4898375;29;20407;-75
2022/04/28 07:34:20;;;;;;;6.75;4.63;;;29.00;40.20;;;;;;4890588;29;20028;-73
2022/04/28 07:36:46;;;;;;;6.70;5.10;;;29.00;39.70;;;;;;4888543;29;20025;-73
2022/04/28 07:39:12;;;;;;;6.00;4.55;;;28.90;39.70;;;;;;4895822;29;20450;-74
2022/04/28 07:41:44;;;;;;;5.28;4.63;;;28.90;39.80;;;;;;4904731;29;20024;-74
2022/04/28 07:44:35;;;;;;;10.18;5.43;;;29.00;39.50;;;;;;4897144;29;20048;-73
2022/04/28 07:47:11;;;;;;;5.18;4.57;;;29.40;39.80;;;;;;4896770;29;20040;-73
2022/04/28 07:49:37;;;;;;;7.85;4.68;;;29.60;38.20;;;;;;4891459;29;20781;-73
2022/04/28 07:52:04;;;;;;;5.60;4.63;;;29.40;38.50;;;;;;4896686;29;20032;-74
2022/04/28 07:54:31;;;;;;;6.28;4.90;;;29.50;38.30;;;;;;4895304;29;20088;-73
2022/04/28 07:56:57;;;;;;;6.68;5.10;;;29.60;38.60;;;;;;4893287;29;20027;-73
2022/04/28 07:59:22;;;;;;;5.88;4.82;;;29.90;38.20;;;;;;4892785;29;20020;-73
2022/04/28 08:01:48;;;;;;;5.43;4.65;;;30.10;38.50;;;;;;4887272;29;20080;-73
2022/04/28 08:04:14;;;;;;;6.53;4.85;;;30.20;38.30;;;;;;4895269;29;20032;-73
2022/04/28 08:06:40;;;;;;;5.10;4.60;;;30.10;37.90;;;;;;4896756;29;20030;-73
2022/04/28 08:09:08;;;;;;;6.85;5.03;;;30.20;38.10;;;;;;4897039;29;20028;-74
2022/04/28 08:11:38;;;;;;;5.57;4.50;;;30.00;37.90;;;;;;4893189;29;20071;-74
2022/04/28 08:14:03;;;;;;;8.57;5.80;;;30.10;38.30;;;;;;4891403;29;20032;-73
2022/04/28 08:16:29;;;;;;;6.88;5.20;;;30.10;37.60;;;;;;4896203;29;20039;-73
2022/04/28 08:18:56;;;;;;;6.50;5.40;;;29.90;38.20;;;;;;4899568;29;20046;-73
2022/04/28 08:21:22;;;;;;;6.57;5.22;;;30.00;38.20;;;;;;4906665;29;20636;-74
2022/04/28 08:23:47;;;;;;;7.13;5.78;;;29.80;38.40;;;;;;4904994;29;20024;-73
2022/04/28 08:26:13;;;;;;;6.47;5.75;;;30.10;38.50;;;;;;4888369;29;20032;-73
2022/04/28 08:28:39;;;;;;;6.78;5.45;;;30.20;39.10;;;;;;4896307;29;20024;-73
2022/04/28 08:31:05;;;;;;;6.38;5.78;;;30.30;38.60;;;;;;4892973;29;20464;-74
2022/04/28 08:33:32;;;;;;;6.10;5.50;;;30.30;38.10;;;;;;4896348;29;20027;-73
2022/04/28 08:35:58;;;;;;;7.25;5.78;;;30.10;38.00;;;;;;4904086;29;20109;-74
2022/04/28 08:38:24;;;;;;;7.18;5.45;;;29.90;38.00;;;;;;4894605;29;20116;-74
2022/04/28 08:41:02;;;;;;;6.88;6.07;;;29.70;38.30;;;;;;4893424;29;20078;-74
2022/04/28 08:43:33;;;;;;;7.03;5.80;;;29.90;38.10;;;;;;4894945;29;20032;-74
2022/04/28 08:48:56;;;;;;;6.67;5.90;;;30.20;37.30;;;;;;4897016;29;20056;-73
2022/04/28 08:51:27;;;;;;;6.85;5.60;;;29.90;37.70;;;;;;4887777;29;20076;-73
2022/04/28 08:53:54;;;;;;;6.95;6.15;;;29.60;38.10;;;;;;4895086;29;20024;-73
2022/04/28 08:56:22;;;;;;;7.78;6.22;;;28.10;39.40;;;;;;4891557;29;20267;-73
2022/04/28 08:58:49;;;;;;;6.50;5.68;;;28.10;39.90;;;;;;4890668;29;20029;-73
2022/04/28 09:01:14;;;;;;;8.23;6.28;;;28.30;40.50;;;;;;4889467;29;20032;-73
2022/04/28 09:03:41;;;;;;;7.72;5.78;;;28.80;39.90;;;;;;4893641;29;20025;-74
2022/04/28 09:06:25;;;;;;;8.02;5.72;;;29.40;39.80;;;;;;4888981;29;20044;-73
2022/04/28 09:08:51;;;;;;;6.07;5.47;;;30.40;39.00;;;;;;4898779;29;20119;-76
2022/04/28 09:11:24;;;;;;;7.55;6.13;;;30.90;38.50;;;;;;4888276;29;20024;-76
2022/04/28 09:14:12;;;;;;;7.95;6.00;;;31.10;38.30;;;;;;4894407;29;20017;-76
2022/04/28 09:16:48;;;;;;;6.60;5.90;;;31.00;38.10;;;;;;4907250;29;20028;-76
2022/04/28 09:19:19;;;;;;;6.57;5.53;;;30.60;38.60;;;;;;4890622;29;20053;-76
2022/04/28 09:21:46;;;;;;;6.00;5.40;;;30.10;38.80;;;;;;4894054;29;20023;-75
2022/04/28 09:24:40;;;;;;;6.35;5.53;;;28.90;38.20;;;;;;4887905;29;20044;-74
2022/04/28 09:27:08;;;;;;;4.90;4.40;;;27.60;39.50;;;;;;4891820;29;20047;-73
2022/04/28 09:29:39;;;;;;;7.18;4.40;;;27.70;37.80;;;;;;4890359;29;21114;-74
2022/04/28 09:32:31;;;;;;;;;;;;;;;;;;;;;
2022/04/28 09:35:09;;;;;;;6.43;4.20;;;27.50;35.60;;;;;;4893476;29;20032;-73
2022/04/28 09:37:40;;;;;;;5.82;5.28;;;27.80;38.80;;;;;;4890619;29;20029;-73
2022/04/28 09:42:53;;;;;;;6.50;5.53;;;29.40;40.20;;;;;;4894370;29;20040;-74
2022/04/28 09:45:22;;;;;;;5.75;5.00;;;30.00;39.10;;;;;;4886416;29;20079;-73
2022/04/28 09:47:58;;;;;;;6.72;5.18;;;30.30;37.40;;;;;;4892049;29;20048;-73
2022/04/28 09:50:37;;;;;;;5.85;4.28;;;29.70;36.60;;;;;;4884949;29;20133;-73
2022/04/28 09:53:08;;;;;;;5.80;5.20;;;28.70;36.10;;;;;;4892967;29;20056;-73
2022/04/28 09:55:39;;;;;;;8.75;5.22;;;27.20;38.50;;;;;;4890777;29;20028;-73
2022/04/28 09:58:06;;;;;;;6.05;5.40;;;25.70;41.30;;;;;;4888887;29;20043;-73
2022/04/28 10:00:33;;;;;;;8.52;6.07;;;24.20;43.70;;;;;;4893269;29;20039;-74
2022/04/28 10:03:02;;;;;;;7.80;6.13;;;23.10;45.70;;;;;;4894823;29;20094;-74
2022/04/28 10:05:31;;;;;;;6.93;5.70;;;22.20;46.70;;;;;;4892612;29;20024;-74
2022/04/28 10:07:57;;;;;;;6.30;5.40;;;21.50;48.80;;;;;;4889022;29;20028;-74
2022/04/28 10:10:26;;;;;;;;;;;20.90;49.70;;;;;;4891065;29;20028;-74
2022/04/28 10:12:55;;;;;;;6.82;5.35;;;20.80;50.70;;;;;;4891606;29;20320;-74
2022/04/28 10:15:22;;;;;;;6.63;5.70;;;20.70;50.90;;;;;;4909735;29;20024;-74
2022/04/28 10:18:10;;;;;;;6.82;5.53;;;20.50;49.90;;;;;;4897230;29;20022;-74
2022/04/28 10:20:41;;;;;;;7.60;5.80;;;20.20;50.30;;;;;;4890284;29;20021;-74
2022/04/28 10:23:13;;;;;;;7.90;5.53;;;19.90;51.90;;;;;;4900734;29;20024;-73
2022/04/28 10:34:14;;;;;;;8.45;5.18;;;20.00;51.10;;;;;;4899633;29;20046;-76
2022/04/28 10:37:06;;;;;;;7.28;5.13;;;20.50;50.50;;;;;;4899891;29;20106;-77
2022/04/28 10:39:41;;;;;;;6.00;4.85;;;21.20;48.20;;;;;;4894066;29;21623;-76
2022/04/28 10:42:25;;;;;;;5.75;4.25;;;21.10;47.20;;;;;;4900459;29;20414;-76
2022/04/28 10:44:56;;;;;;;5.75;4.72;;;20.70;48.10;;;;;;4895570;29;20076;-77
2022/04/28 10:47:36;;;;;;;7.30;4.43;;;20.40;48.40;;;;;;4897652;29;20028;-76
2022/04/28 10:50:04;;;;;;;5.38;4.40;;;20.20;48.80;;;;;;4892648;29;20024;-76
2022/04/28 10:52:34;;;;;;;5.70;4.57;;;20.00;48.30;;;;;;4891805;29;20928;-76
2022/04/28 10:55:03;;;;;;;7.88;4.25;;;19.70;48.80;;;;;;4901446;29;20054;-75
2022/04/28 10:57:32;;;;;;;5.53;4.20;;;19.30;48.60;;;;;;4889165;29;20031;-76
2022/04/28 11:00:06;;;;;;;5.70;4.03;;;19.10;48.60;;;;;;4900036;29;20025;-76
2022/04/28 11:02:37;;;;;;;5.38;4.05;;;19.00;48.80;;;;;;4893958;29;20494;-76
2022/04/28 11:05:27;;;;;;;5.07;3.97;;;18.80;48.80;;;;;;4914455;29;20036;-74
2022/04/28 11:07:59;;;;;;;4.93;3.67;;;18.60;49.10;;;;;;4913527;29;20052;-73
2022/04/28 11:10:26;;;;;;;6.40;3.80;;;18.50;49.70;;;;;;4898167;29;20043;-74
2022/04/28 11:12:54;;;;;;;3.55;3.20;;;18.50;49.90;;;;;;4893242;29;20498;-74
2022/04/28 11:15:23;;;;;;;5.45;3.67;;;18.70;50.20;;;;;;4899480;29;20116;-74
2022/04/28 11:17:50;;;;;;;4.15;3.72;;;19.00;48.80;;;;;;4899167;29;20017;-75
2022/04/28 11:20:20;;;;;;;4.93;4.00;;;19.40;47.70;;;;;;4897518;29;20032;-74
2022/04/28 11:22:54;;;;;;;5.68;3.22;;;19.80;47.00;;;;;;4900844;29;20047;-73
2022/04/28 11:25:22;;;;;;;4.07;3.10;;;20.20;45.60;;;;;;4890843;29;20021;-75
2022/04/28 11:27:50;;;;;;;4.53;3.40;;;20.50;44.40;;;;;;4900302;29;20023;-74
2022/04/28 11:30:22;;;;;;;5.18;3.67;;;20.50;43.70;;;;;;4890463;29;20029;-74
2022/04/28 11:32:55;;;;;;;4.45;3.08;;;20.60;44.10;;;;;;4896484;29;20028;-75
2022/04/28 11:35:22;;;;;;;6.78;3.10;;;20.70;44.20;;;;;;4892310;29;20051;-76
2022/04/28 11:37:58;;;;;;;3.83;3.08;;;20.80;44.00;;;;;;4902357;29;20020;-74
2022/04/28 11:40:24;;;;;;;4.05;3.30;;;20.70;43.10;;;;;;4893131;29;20036;-75
2022/04/28 11:43:03;;;;;;;4.65;3.00;;;20.50;42.20;;;;;;4896332;29;20369;-73
2022/04/28 11:45:31;;;;;;;3.92;3.05;;;20.50;42.90;;;;;;4890653;29;20440;-73
2022/04/28 11:47:59;;;;;;;4.63;2.75;;;20.80;44.10;;;;;;4895960;29;20458;-74
2022/04/28 11:50:27;;;;;;;4.22;3.03;;;20.90;42.70;;;;;;4885778;29;20063;-74
2022/04/28 11:53:01;;;;;;;4.78;2.90;;;21.20;43.20;;;;;;4889512;29;20104;-75
2022/04/28 11:55:30;;;;;;;4.32;3.20;;;21.40;43.10;;;;;;4903936;29;20520;-75
2022/04/28 11:57:58;;;;;;;6.38;3.33;;;21.60;42.70;;;;;;4890617;29;20423;-75
2022/04/28 12:00:25;;;;;;;4.65;3.00;;;21.70;42.20;;;;;;4884161;29;20035;-75
2022/04/28 12:02:53;;;;;;;4.80;2.83;;;21.60;42.10;;;;;;4890397;29;20048;-75
2022/04/28 12:05:22;;;;;;;3.63;2.55;;;21.60;41.20;;;;;;4894850;29;20436;-74
2022/04/28 12:07:52;;;;;;;5.57;2.55;;;21.50;41.80;;;;;;4893874;29;20032;-75
2022/04/28 12:16:18;;;;;;;5.72;2.75;;;21.50;41.50;;;;;;4892878;29;20084;-76
2022/04/28 12:21:36;;;;;;;6.10;2.83;;;21.90;41.20;;;;;;4892902;29;20035;-75
2022/04/28 12:24:13;;;;;;;2.80;2.53;;;22.00;41.20;;;;;;4891423;29;20033;-75
2022/04/28 12:26:42;;;;;;;4.32;2.72;;;22.10;41.00;;;;;;4891660;29;20028;-75
2022/04/28 12:29:13;;;;;;;4.07;2.45;;;21.90;40.10;;;;;;4893851;29;20698;-75
2022/04/28 12:31:43;;;;;;;4.18;2.63;;;21.90;41.30;;;;;;4915220;29;20541;-75
2022/04/28 12:34:15;;;;;;;3.50;2.50;;;21.70;41.10;;;;;;4891043;29;20032;-75
2022/04/28 12:36:53;;;;;;;4.72;2.90;;;21.50;41.70;;;;;;4901907;29;20141;-75
2022/04/28 12:39:21;;;;;;;3.25;2.50;;;21.30;41.80;;;;;;4892654;29;20029;-74
2022/04/28 12:41:48;;;;;;;4.32;2.60;;;21.00;41.90;;;;;;4896829;29;20024;-75
2022/04/28 12:44:16;;;;;;;4.00;2.50;;;20.60;41.60;;;;;;4898012;29;20031;-74
2022/04/28 12:46:45;;;;;;;4.40;2.50;;;20.30;42.10;;;;;;4897438;29;20024;-74
2022/04/28 12:49:18;;;;;;;3.78;2.42;;;20.00;42.80;;;;;;4909420;29;20407;-74
2022/04/28 12:51:45;;;;;;;4.78;2.53;;;19.70;43.40;;;;;;4894858;29;20108;-74
2022/04/28 12:54:15;;;;;;;4.40;2.95;;;19.50;43.60;;;;;;4900699;29;20447;-73
2022/04/28 12:56:46;;;;;;;3.55;2.45;;;19.50;44.10;;;;;;4901652;29;20048;-73
2022/04/28 12:59:15;;;;;;;2.90;2.60;;;19.60;43.60;;;;;;4896091;29;20071;-73
2022/04/28 13:01:46;;;;;;;2.70;2.33;;;19.70;43.30;;;;;;4893429;29;20638;-73
2022/04/28 13:04:17;;;;;;;2.88;2.50;;;19.70;43.40;;;;;;4890653;29;20524;-73
2022/04/28 13:06:46;;;;;;;3.58;2.35;;;19.70;42.30;;;;;;4895365;29;20039;-73
2022/04/28 13:09:15;;;;;;;2.58;2.38;;;19.70;42.10;;;;;;4895878;29;20132;-73
2022/04/28 13:11:42;;;;;;;3.35;2.50;;;19.80;42.40;;;;;;4893025;29;20025;-73
2022/04/28 13:14:11;;;;;;;2.60;2.40;;;20.00;42.20;;;;;;4883006;29;20087;-73
2022/04/28 13:16:42;;;;;;;5.18;3.20;;;20.00;42.70;;;;;;4895865;29;20021;-73
2022/04/28 13:19:10;;;;;;;4.63;2.70;;;20.00;42.20;;;;;;4894921;29;20483;-74
2022/04/28 13:21:39;;;;;;;3.05;2.67;;;19.90;42.30;;;;;;4899492;29;20020;-74
2022/04/28 13:24:07;;;;;;;4.97;2.30;;;19.80;42.50;;;;;;4888862;29;20039;-74
2022/04/28 13:26:33;;;;;;;2.60;2.40;;;19.70;43.40;;;;;;4897156;29;20032;-73
2022/04/28 13:29:00;;;;;;;2.92;2.40;;;19.60;43.40;;;;;;4886464;29;20028;-74
2022/04/28 13:31:28;;;;;;;3.38;2.47;;;19.50;43.60;;;;;;4892400;29;20032;-74
2022/04/28 13:33:58;;;;;;;5.43;2.83;;;19.50;43.60;;;;;;4907196;29;20031;-73
2022/04/28 13:36:25;;;;;;;4.28;2.67;;;19.60;43.40;;;;;;4893946;29;20518;-73
2022/04/28 13:38:53;;;;;;;3.47;2.50;;;19.60;43.30;;;;;;4891959;29;20156;-74